Time;durP1;ratioP1;P1;durP2;ratioP2;P2;SDS_P1;SDS_P2;PMS_P1;PMS_P2;Temp;Humidity;BMP_temperature;BMP_pressure;BME280_temperature;BME280_humidity;BME280_pressure;Samples;Min_cycle;Max_cycle;Signal;HPM_P1;HPM_P2
2022/12/10 00:00:39;;;;;;;;;65.50;48.00;;;;;4.69;67.29;100472.25;5099298;27;45429;-54
2022/12/10 00:03:05;;;;;;;;;66.75;47.00;;;;;4.68;67.47;100481.09;5099315;27;45316;-54
2022/12/10 00:05:33;;;;;;;;;57.50;42.00;;;;;4.68;66.58;100482.91;5099934;27;45263;-63
2022/12/10 00:07:59;;;;;;;;;66.50;48.50;;;;;4.66;66.80;100484.81;5100266;27;45244;-66
2022/12/10 00:10:24;;;;;;;;;67.75;43.75;;;;;4.64;67.08;100478.81;5099386;27;45687;-67
2022/12/10 00:12:50;;;;;;;;;65.75;47.00;;;;;4.64;67.48;100484.09;5099090;27;45230;-65
2022/12/10 00:15:16;;;;;;;;;66.75;50.25;;;;;4.61;67.68;100484.31;5098893;27;45415;-58
2022/12/10 00:17:42;;;;;;;;;69.50;48.25;;;;;4.62;67.47;100481.56;5098593;27;45476;-65
2022/12/10 00:20:08;;;;;;;;;71.00;50.75;;;;;4.62;68.06;100484.19;5098606;27;45515;-60
2022/12/10 00:22:34;;;;;;;;;73.75;53.00;;;;;4.63;67.25;100490.28;5098537;27;45320;-65
2022/12/10 00:24:59;;;;;;;;;67.50;50.25;;;;;4.67;67.48;100504.91;5097854;27;46633;-62
2022/12/10 00:27:24;;;;;;;;;67.50;50.75;;;;;4.60;67.14;100488.75;5098417;27;45338;-49
2022/12/10 00:29:50;;;;;;;;;70.75;51.25;;;;;4.68;67.67;100501.34;5098538;27;45436;-60
2022/12/10 00:32:15;;;;;;;;;73.50;55.50;;;;;4.67;67.26;100489.94;5098686;27;45343;-64
2022/12/10 00:34:40;;;;;;;;;82.25;56.75;;;;;4.73;67.38;100500.03;5098052;27;46168;-65
2022/12/10 00:37:06;;;;;;;;;73.25;53.75;;;;;4.71;67.43;100493.19;5098388;27;45333;-65
2022/12/10 00:39:31;;;;;;;;;64.50;54.75;;;;;4.73;67.46;100494.78;5098533;27;45297;-65
2022/12/10 00:41:56;;;;;;;;;78.50;59.75;;;;;4.72;67.04;100489.63;5098332;27;45461;-61
2022/12/10 00:44:22;;;;;;;;;79.75;58.50;;;;;4.46;67.40;100459.94;5097999;27;46817;-51
2022/12/10 00:46:47;;;;;;;;;63.00;49.50;;;;;4.68;67.22;100504.81;5098255;27;45312;-65
2022/12/10 00:49:13;;;;;;;;;71.00;52.25;;;;;4.65;67.35;100494.50;5096752;27;45338;-54
2022/12/10 00:51:38;;;;;;;;;73.00;53.50;;;;;4.70;67.98;100499.44;5097036;27;45232;-54
2022/12/10 00:54:04;;;;;;;;;67.00;52.00;;;;;4.71;68.19;100501.09;5096374;27;46100;-55
2022/12/10 00:56:32;;;;;;;;;75.50;57.00;;;;;4.72;67.86;100503.63;5096480;27;45224;-64
2022/12/10 00:58:58;;;;;;;;;68.00;51.00;;;;;4.69;68.08;100501.22;5096700;27;45379;-53
2022/12/10 01:01:27;;;;;;;;;65.25;51.00;;;;;4.75;67.62;100506.03;5096862;27;45602;-66
2022/12/10 01:03:56;;;;;;;;;70.25;51.25;;;;;4.79;67.51;100504.00;5096155;27;46390;-65
2022/12/10 01:06:24;;;;;;;;;70.25;49.75;;;;;4.81;68.26;100503.91;5096103;27;45468;-62
2022/12/10 01:08:52;;;;;;;;;69.25;51.25;;;;;4.84;67.83;100501.00;5096617;27;45439;-66
2022/12/10 01:11:19;;;;;;;;;56.00;47.00;;;;;4.86;68.07;100502.59;5096648;27;45283;-55
2022/12/10 01:13:46;;;;;;;;;61.75;47.00;;;;;4.86;67.13;100504.38;5096029;27;46190;-64
2022/12/10 01:16:13;;;;;;;;;65.50;48.00;;;;;4.88;66.95;100513.00;5096414;27;45401;-65
2022/12/10 01:18:40;;;;;;;;;59.00;47.00;;;;;4.90;67.11;100508.47;5096252;27;45293;-61
2022/12/10 01:21:09;;;;;;;;;65.50;50.50;;;;;4.91;66.64;100508.34;5096339;27;45394;-59
2022/12/10 01:23:37;;;;;;;;;65.25;47.75;;;;;4.91;67.56;100512.78;5096097;27;46261;-64
2022/12/10 01:26:06;;;;;;;;;64.25;47.50;;;;;4.95;67.69;100524.78;5096140;27;45291;-64
2022/12/10 01:28:33;;;;;;;;;68.75;47.50;;;;;4.95;67.36;100525.63;5096188;27;45303;-54
2022/12/10 01:31:03;;;;;;;;;64.50;48.50;;;;;4.95;66.72;100530.06;5096452;27;45333;-64
2022/12/10 01:33:29;;;;;;;;;74.00;49.25;;;;;4.94;66.74;100528.38;5095867;27;46077;-53
2022/12/10 01:35:55;;;;;;;;;66.25;50.00;;;;;4.85;67.44;100508.00;5094911;27;45410;-61
2022/12/10 01:38:20;;;;;;;;;66.75;51.25;;;;;4.95;66.61;100525.63;5096168;27;45444;-63
2022/12/10 01:40:45;;;;;;;;;70.50;54.50;;;;;4.97;66.69;100533.41;5096110;27;45320;-66
2022/12/10 01:43:14;;;;;;;;;71.00;52.50;;;;;4.99;67.52;100537.59;5095819;27;45311;-64
2022/12/10 01:45:40;;;;;;;;;65.50;48.25;;;;;5.00;66.56;100546.34;5096010;27;45366;-64
2022/12/10 01:48:06;;;;;;;;;65.00;50.25;;;;;5.02;67.13;100548.91;5054928;27;1171719;-65
2022/12/10 01:50:31;;;;;;;;;67.50;52.25;;;;;5.01;67.35;100550.66;5095985;27;45633;-58
2022/12/10 01:52:57;;;;;;;;;65.00;51.50;;;;;4.99;67.34;100547.31;5096959;27;45975;-64
2022/12/10 01:55:37;;;;;;;;;65.75;48.75;;;;;4.99;66.86;100558.69;5097298;27;45310;-64
2022/12/10 01:58:03;;;;;;;;;73.25;55.00;;;;;4.97;67.42;100560.63;5097343;27;45470;-57
2022/12/10 02:00:30;;;;;;;;;72.50;51.75;;;;;4.96;67.11;100558.91;5097358;27;45330;-65
2022/12/10 02:03:02;;;;;;;;;68.25;46.50;;;;;4.93;66.66;100567.09;5097008;27;45229;-65
2022/12/10 02:05:40;;;;;;;;;67.25;50.00;;;;;4.92;67.47;100564.53;5096940;27;45342;-66
2022/12/10 02:08:24;;;;;;;;;68.75;49.75;;;;;4.91;67.54;100565.50;5097153;27;45368;-62
2022/12/10 02:11:09;;;;;;;;;60.25;49.00;;;;;4.91;67.18;100570.78;5097275;27;45369;-61
2022/12/10 02:13:42;;;;;;;;;73.50;50.75;;;;;4.91;67.16;100568.13;5096838;27;46039;-64
2022/12/10 02:16:33;;;;;;;;;64.50;47.25;;;;;4.88;67.03;100571.81;5097061;27;45312;-65
2022/12/10 02:19:10;;;;;;;;;60.50;48.50;;;;;4.87;67.79;100569.31;5097042;27;45396;-63
2022/12/10 02:21:40;;;;;;;;;66.25;46.25;;;;;4.86;67.47;100567.66;5097181;27;45305;-59
2022/12/10 02:24:13;;;;;;;;;69.00;48.75;;;;;4.86;66.77;100568.47;5096654;27;48416;-64
2022/12/10 02:26:55;;;;;;;;;63.75;46.50;;;;;4.87;67.66;100572.78;5096752;27;45262;-65
2022/12/10 02:29:26;;;;;;;;;110.00;82.67;;;;;4.90;67.44;100577.00;5096739;27;45344;-67
2022/12/10 02:32:03;;;;;;;;;76.75;57.50;;;;;4.89;67.50;100578.81;5096854;27;45354;-62
2022/12/10 02:34:33;;;;;;;;;65.25;50.00;;;;;4.88;67.54;100571.81;5096599;27;45598;-65
2022/12/10 02:37:05;;;;;;;;;57.75;48.25;;;;;4.90;67.06;100580.47;5096522;27;45440;-64
2022/12/10 02:39:37;;;;;;;;;51.25;42.00;;;;;4.92;67.67;100583.81;5096821;27;45303;-62
2022/12/10 02:42:04;;;;;;;;;61.50;47.25;;;;;4.93;67.36;100585.53;5096809;27;45932;-64
2022/12/10 02:44:33;;;;;;;;;61.00;45.50;;;;;4.88;66.88;100576.25;5096585;27;46205;-67
2022/12/10 02:46:59;;;;;;;;;61.25;39.00;;;;;4.92;67.57;100589.09;5097798;27;45376;-59
2022/12/10 02:49:26;;;;;;;;;57.75;48.00;;;;;4.92;66.65;100580.34;5100034;27;45346;-66
2022/12/10 02:51:52;;;;;;;;;57.50;39.25;;;;;4.93;66.96;100587.28;5100450;27;45446;-64
2022/12/10 02:54:37;;;;;;;;;66.25;48.50;;;;;4.93;67.30;100590.81;5099916;27;46074;-52
2022/12/10 02:57:23;;;;;;;;;54.25;42.25;;;;;4.91;67.53;100589.22;5099808;27;45372;-53
2022/12/10 03:00:18;;;;;;;;;48.75;30.75;;;;;4.92;67.22;100580.34;5100115;27;45475;-58
2022/12/10 03:02:53;;;;;;;;;63.50;43.00;;;;;4.90;67.33;100585.75;5100140;27;45386;-68
2022/12/10 03:05:30;;;;;;;;;55.00;43.50;;;;;4.84;67.44;100583.56;5099784;27;46160;-52
2022/12/10 03:08:08;;;;;;;;;58.75;42.25;;;;;4.82;66.80;100582.00;5099844;27;45362;-65
2022/12/10 03:10:40;;;;;;;;;54.50;38.50;;;;;4.81;67.73;100585.59;5099823;27;45440;-66
2022/12/10 03:13:14;;;;;;;;;51.25;44.75;;;;;4.77;67.77;100578.88;5099896;27;45432;-65
2022/12/10 03:15:42;;;;;;;;;48.00;37.25;;;;;4.79;67.45;100572.53;5099600;27;46382;-67
2022/12/10 03:18:10;;;;;;;;;56.50;35.25;;;;;4.77;67.49;100574.44;5099552;27;45223;-67
2022/12/10 03:20:42;;;;;;;;;57.25;38.00;;;;;4.78;67.98;100576.13;5099553;27;45200;-67
2022/12/10 03:23:14;;;;;;;;;56.25;40.00;;;;;4.73;67.64;100568.56;5099801;27;45363;-68
2022/12/10 03:25:39;;;;;;;;;50.25;39.75;;;;;4.78;67.31;100578.75;5099410;27;47150;-66
2022/12/10 03:28:07;;;;;;;;;62.25;46.25;;;;;4.80;67.50;100584.72;5099568;27;45519;-63
2022/12/10 03:30:33;;;;;;;;;40.00;32.50;;;;;4.80;68.16;100584.72;5099748;27;45312;-58
2022/12/10 03:32:59;;;;;;;;;44.25;37.25;;;;;4.81;67.99;100593.50;5099933;27;45555;-60
2022/12/10 03:35:26;;;;;;;;;44.50;35.50;;;;;4.83;67.88;100588.94;5099802;27;45363;-53
2022/12/10 03:37:52;;;;;;;;;42.25;31.75;;;;;4.85;66.89;100593.16;5099590;27;45535;-53
2022/12/10 03:40:22;;;;;;;;;42.25;36.75;;;;;4.85;67.00;100587.06;5099336;27;45334;-67
2022/12/10 03:42:47;;;;;;;;;45.25;34.75;;;;;4.86;66.87;100588.72;5099727;27;45348;-55
2022/12/10 03:45:13;;;;;;;;;52.00;38.50;;;;;4.88;66.86;100586.81;5098991;27;45381;-53
2022/12/10 03:47:40;;;;;;;;;48.75;37.25;;;;;4.88;67.11;100592.06;5099037;27;45425;-56
2022/12/10 03:50:05;;;;;;;;;45.00;32.50;;;;;4.87;67.15;100593.88;5098978;27;45535;-51
2022/12/10 03:52:31;;;;;;;;;51.25;40.50;;;;;4.86;67.36;100594.84;5099356;27;45180;-64
2022/12/10 03:54:56;;;;;;;;;49.75;36.25;;;;;4.88;67.17;100598.19;5099000;27;45558;-68
2022/12/10 03:57:21;;;;;;;;;46.25;35.75;;;;;4.88;67.19;100598.19;5098729;27;45460;-66
2022/12/10 03:59:46;;;;;;;;;45.75;36.00;;;;;4.88;67.07;100605.25;5097959;27;45267;-55
2022/12/10 04:02:12;;;;;;;;;49.75;39.00;;;;;4.80;67.41;100594.44;5099129;27;45374;-52
2022/12/10 04:04:37;;;;;;;;;49.50;33.25;;;;;4.84;66.83;100609.91;5098867;27;45341;-53
2022/12/10 04:07:03;;;;;;;;;49.50;35.75;;;;;4.81;67.20;100612.78;5098863;27;45325;-67
2022/12/10 04:09:28;;;;;;;;;45.25;36.75;;;;;4.82;67.29;100614.47;5098726;27;45528;-66
2022/12/10 04:11:57;;;;;;;;;55.25;40.25;;;;;4.78;66.69;100599.00;5099081;27;45487;-68
2022/12/10 04:17:07;;;;;;;;;43.75;35.50;;;;;4.78;66.80;100612.16;5098584;27;45326;-63
2022/12/10 04:19:32;;;;;;;;;50.50;37.25;;;;;4.75;67.08;100603.53;5098419;27;45422;-66
2022/12/10 04:27:33;;;;;;;;;52.00;33.25;;;;;4.79;67.54;100605.94;5098663;27;45265;-66
2022/12/10 04:29:59;;;;;;;;;43.50;30.00;;;;;4.79;67.35;100609.41;5098357;27;45345;-66
2022/12/10 04:32:26;;;;;;;;;44.50;32.75;;;;;4.81;66.50;100617.22;5098695;27;45506;-66
2022/12/10 04:34:52;;;;;;;;;41.25;31.50;;;;;4.75;67.51;100607.97;5098329;27;45256;-67
2022/12/10 04:37:18;;;;;;;;;46.25;32.25;;;;;4.80;66.97;100616.34;5098082;27;45349;-67
2022/12/10 04:39:44;;;;;;;;;42.00;28.50;;;;;4.81;66.63;100623.34;5098549;27;45272;-67
2022/12/10 04:42:09;;;;;;;;;42.75;25.00;;;;;4.81;66.27;100617.22;5098572;27;45234;-67
2022/12/10 04:44:35;;;;;;;;;41.00;31.50;;;;;4.79;66.45;100617.31;5098144;27;45768;-67
2022/12/10 04:47:00;;;;;;;;;51.75;31.75;;;;;4.76;66.48;100620.16;5098296;27;45329;-67
2022/12/10 04:49:26;;;;;;;;;47.50;35.25;;;;;4.76;66.76;100633.34;5098209;27;45656;-65
2022/12/10 04:51:52;;;;;;;;;43.25;31.50;;;;;4.74;66.03;100636.09;5098513;27;45369;-65
2022/12/10 04:54:19;;;;;;;;;33.50;25.75;;;;;4.72;66.41;100630.13;5097939;27;45353;-66
2022/12/10 04:56:44;;;;;;;;;48.00;26.00;;;;;4.59;66.42;100618.75;5096644;27;45413;-67
2022/12/10 04:59:10;;;;;;;;;44.75;30.50;;;;;4.71;65.95;100627.56;5098217;27;45453;-67
2022/12/10 05:01:35;;;;;;;;;47.00;33.75;;;;;4.70;66.45;100624.09;5098249;27;45321;-61
2022/12/10 05:04:02;;;;;;;;;32.50;25.00;;;;;4.68;65.71;100626.03;5097820;27;46914;-67
2022/12/10 05:06:28;;;;;;;;;35.25;24.00;;;;;4.68;66.11;100635.72;5096580;27;45386;-66
2022/12/10 05:08:53;;;;;;;;;46.75;26.25;;;;;4.69;66.66;100630.34;5098015;27;45374;-67
2022/12/10 05:11:21;;;;;;;;;38.00;28.75;;;;;4.69;66.03;100632.97;5097998;27;45343;-64
2022/12/10 05:13:47;;;;;;;;;39.75;28.50;;;;;4.70;66.55;100632.00;5098824;27;46273;-56
2022/12/10 05:16:18;;;;;;;;;31.25;23.00;;;;;4.71;66.39;100633.69;5098219;27;45407;-65
2022/12/10 05:18:44;;;;;;;;;39.50;30.00;;;;;4.63;66.51;100617.59;5098020;27;45474;-64
2022/12/10 05:21:12;;;;;;;;;32.00;27.00;;;;;4.73;66.04;100623.06;5098123;27;45203;-63
2022/12/10 05:23:41;;;;;;;;;41.50;29.25;;;;;4.74;65.79;100628.19;5096358;27;45540;-67
2022/12/10 05:26:10;;;;;;;;;33.75;29.50;;;;;4.76;66.45;100630.72;5097939;27;45425;-61
2022/12/10 05:28:41;;;;;;;;;44.00;26.25;;;;;4.75;65.71;100629.88;5097661;27;45285;-55
2022/12/10 05:31:16;;;;;;;;;33.50;22.25;;;;;4.72;66.01;100630.13;5098069;27;45145;-53
2022/12/10 05:33:41;;;;;;;;;29.00;22.50;;;;;4.70;65.54;100637.28;5097609;27;46343;-50
2022/12/10 05:36:07;;;;;;;;;34.50;20.50;;;;;4.71;65.91;100638.13;5097528;27;45455;-52
2022/12/10 05:38:34;;;;;;;;;22.00;19.25;;;;;4.70;64.94;100645.19;5098149;27;45236;-55
2022/12/10 05:41:04;;;;;;;;;32.50;30.50;;;;;4.72;65.71;100642.47;5098650;27;45274;-63
2022/12/10 05:43:29;;;;;;;;;34.75;24.75;;;;;4.69;65.13;100638.25;5098907;27;45488;-64
2022/12/10 05:46:03;;;;;;;;;32.00;23.75;;;;;4.71;65.21;100654.75;5097653;27;45305;-55
2022/12/10 05:48:29;;;;;;;;;33.75;29.75;;;;;4.74;65.25;100649.28;5098009;27;45334;-54
2022/12/10 05:50:55;;;;;;;;;40.75;26.75;;;;;4.74;65.47;100658.97;5097405;27;45525;-53
2022/12/10 05:53:20;;;;;;;;;32.50;25.50;;;;;4.74;64.99;100659.81;5096174;27;45415;-51
2022/12/10 05:55:45;;;;;;;;;38.00;27.25;;;;;4.73;65.89;100666.06;5097457;27;45347;-56
2022/12/10 05:58:11;;;;;;;;;44.75;24.00;;;;;4.70;65.50;100663.63;5097596;27;45311;-53
2022/12/10 06:00:39;;;;;;;;;36.75;28.00;;;;;4.73;65.43;100670.47;5097644;27;45300;-58
2022/12/10 06:03:05;;;;;;;;;36.75;24.75;;;;;4.63;66.00;100645.72;5097424;27;46863;-52
2022/12/10 06:05:39;;;;;;;;;23.00;20.00;;;;;4.68;65.36;100657.66;5097395;27;45305;-50
2022/12/10 06:08:05;;;;;;;;;34.50;19.25;;;;;4.72;65.38;100660.91;5097486;27;45550;-55
2022/12/10 06:10:31;;;;;;;;;33.50;24.75;;;;;4.70;64.95;100668.91;5097250;27;45460;-61
2022/12/10 06:12:56;;;;;;;;;30.50;21.50;;;;;4.70;64.86;100675.97;5096970;27;46325;-64
2022/12/10 06:15:22;;;;;;;;;37.25;23.25;;;;;4.65;65.79;100678.94;5096848;27;45393;-52
2022/12/10 06:17:47;;;;;;;;;17.50;14.50;;;;;4.65;65.71;100673.66;5096920;27;45302;-53
2022/12/10 06:20:12;;;;;;;;;22.50;22.00;;;;;4.69;65.49;100676.94;5097088;27;45383;-54
2022/12/10 06:22:38;;;;;;;;;34.75;25.50;;;;;4.69;65.50;100682.19;5098709;27;46058;-55
2022/12/10 06:25:05;;;;;;;;;31.25;21.25;;;;;4.68;65.08;100677.88;5100575;27;45394;-51
2022/12/10 06:27:31;;;;;;;;;45.00;33.75;;;;;4.70;66.04;100684.72;5100024;27;45548;-52
2022/12/10 06:29:56;;;;;;;;;31.75;24.25;;;;;4.72;65.14;100684.63;5100535;27;45336;-51
2022/12/10 06:32:22;;;;;;;;;44.50;25.25;;;;;4.71;66.13;100686.38;5100404;27;46028;-51
2022/12/10 06:34:47;;;;;;;;;30.25;24.50;;;;;4.72;66.20;100695.16;5100321;27;45187;-53
2022/12/10 06:37:12;;;;;;;;;34.00;26.00;;;;;4.73;66.35;100696.84;5100476;27;45336;-53
2022/12/10 06:39:38;;;;;;;;;34.00;31.25;;;;;4.69;65.93;100685.66;5100589;27;45364;-52
2022/12/10 06:42:03;;;;;;;;;45.25;30.25;;;;;4.75;65.85;100697.56;5100383;27;46154;-54
2022/12/10 06:44:28;;;;;;;;;39.25;30.75;;;;;4.76;65.68;100696.59;5100360;27;45436;-53
2022/12/10 06:46:54;;;;;;;;;38.50;28.00;;;;;4.77;65.66;100705.38;5100090;27;45424;-54
2022/12/10 06:49:19;;;;;;;;;32.25;22.00;;;;;4.79;65.69;100701.66;5100375;27;45360;-55
2022/12/10 06:51:47;;;;;;;;;30.25;26.50;;;;;4.81;65.49;100707.66;5100192;27;45433;-54
2022/12/10 06:54:12;;;;;;;;;31.25;26.00;;;;;4.82;66.06;100705.88;5100470;27;45353;-66
2022/12/10 06:56:37;;;;;;;;;45.00;28.25;;;;;4.86;66.36;100715.25;5101094;27;45432;-53
2022/12/10 06:59:08;;;;;;;;;34.75;25.25;;;;;4.87;65.11;100714.28;5100674;27;45510;-62
2022/12/10 07:01:34;;;;;;;;;38.25;28.00;;;;;4.87;66.04;100719.56;5100626;27;45697;-53
2022/12/10 07:03:59;;;;;;;;;32.50;25.00;;;;;4.88;66.04;100719.44;5100717;27;45191;-53
2022/12/10 07:06:27;;;;;;;;;40.25;30.50;;;;;4.89;65.75;100725.56;5098922;27;45447;-56
2022/12/10 07:08:53;;;;;;;;;38.00;28.00;;;;;4.89;65.47;100730.84;5100128;27;45358;-63
2022/12/10 07:11:22;;;;;;;;;41.50;26.00;;;;;4.91;65.53;100732.41;5100671;27;45935;-55
2022/12/10 07:13:47;;;;;;;;;30.75;27.00;;;;;4.90;65.25;100732.53;5100464;27;45446;-61
2022/12/10 07:16:19;;;;;;;;;36.50;25.75;;;;;4.92;65.41;100738.50;5099946;27;45332;-52
2022/12/10 07:18:45;;;;;;;;;34.50;25.50;;;;;4.93;66.01;100742.81;5099688;27;45362;-60
2022/12/10 07:21:27;;;;;;;;;30.75;28.25;;;;;4.92;65.69;100741.16;5099414;27;46598;-54
2022/12/10 07:23:57;;;;;;;;;37.75;26.25;;;;;4.85;65.90;100734.66;5099515;27;45364;-54
2022/12/10 07:26:28;;;;;;;;;36.25;26.75;;;;;4.95;65.17;100754.94;5099859;27;45454;-52
2022/12/10 07:28:53;;;;;;;;;44.50;34.00;;;;;4.96;65.22;100750.50;5099511;27;45309;-52
2022/12/10 07:31:20;;;;;;;;;38.50;26.50;;;;;4.95;65.07;100754.94;5099131;27;46307;-51
2022/12/10 07:33:45;;;;;;;;;40.50;29.50;;;;;4.94;65.93;100757.72;5099012;27;45302;-62
2022/12/10 07:36:11;;;;;;;;;42.50;28.75;;;;;4.88;65.76;100739.69;5099419;27;45325;-55
2022/12/10 07:38:37;;;;;;;;;40.50;27.25;;;;;4.94;65.19;100763.81;5099410;27;45307;-53
2022/12/10 07:41:08;;;;;;;;;29.50;22.25;;;;;4.95;65.90;100760.22;5099020;27;45488;-53
2022/12/10 07:43:38;;;;;;;;;33.00;28.75;;;;;4.94;65.26;100757.72;5099036;27;45304;-53
2022/12/10 07:46:12;;;;;;;;;33.50;27.50;;;;;4.93;65.15;100758.63;5099001;27;45359;-51
2022/12/10 07:48:40;;;;;;;;;32.75;24.25;;;;;4.88;65.03;100753.69;5099115;27;45306;-62
2022/12/10 07:51:06;;;;;;;;;32.50;24.50;;;;;4.91;65.90;100771.09;5098836;27;47197;-54
2022/12/10 07:53:32;;;;;;;;;31.00;23.00;;;;;4.88;65.40;100772.16;5098880;27;45279;-54
2022/12/10 07:55:58;;;;;;;;;43.25;24.25;;;;;4.89;65.83;100773.84;5098912;27;45474;-52
2022/12/10 07:58:23;;;;;;;;;22.25;13.00;;;;;4.88;65.94;100777.41;5099148;27;45420;-51
2022/12/10 08:00:49;;;;;;;;;46.25;28.50;;;;;4.89;65.62;100770.38;5098736;27;46133;-57
2022/12/10 08:03:14;;;;;;;;;27.00;20.50;;;;;4.92;65.71;100775.41;5099106;27;45424;-53
2022/12/10 08:05:39;;;;;;;;;31.50;24.25;;;;;4.93;65.52;100774.44;5099011;27;45841;-54
2022/12/10 08:08:05;;;;;;;;;27.75;21.00;;;;;4.93;65.03;100782.34;5099119;27;45496;-56
2022/12/10 08:10:33;;;;;;;;;25.25;19.75;;;;;4.88;64.72;100777.41;5098794;27;45387;-53
2022/12/10 08:12:59;;;;;;;;;29.50;23.00;;;;;4.88;65.33;100779.22;5098767;27;45364;-53
2022/12/10 08:15:24;;;;;;;;;32.00;19.50;;;;;4.81;65.73;100781.47;5098782;27;45315;-64
2022/12/10 08:17:49;;;;;;;;;26.25;17.00;;;;;4.82;64.99;100793.69;5098753;27;45496;-63
2022/12/10 08:20:15;;;;;;;;;32.75;24.75;;;;;4.79;65.64;100801.81;5098561;27;46418;-62
2022/12/10 08:22:40;;;;;;;;;29.50;19.50;;;;;4.73;64.81;100797.81;5098711;27;45460;-62
2022/12/10 08:25:06;;;;;;;;;25.00;19.25;;;;;4.75;65.10;100803.81;5098670;27;45400;-61
2022/12/10 08:27:31;;;;;;;;;28.50;18.50;;;;;4.77;65.22;100810.78;5098747;27;45371;-58
2022/12/10 08:29:56;;;;;;;;;17.00;17.00;;;;;4.78;65.85;100810.66;5098434;27;46106;-63
2022/12/10 08:32:22;;;;;;;;;38.00;23.25;;;;;4.81;65.21;100825.44;5098251;27;45266;-60
2022/12/10 08:34:48;;;;;;;;;27.00;20.00;;;;;4.84;66.15;100814.66;5098759;27;45346;-62
2022/12/10 08:37:13;;;;;;;;;29.00;19.00;;;;;4.83;65.37;100820.88;5098618;27;45511;-57
2022/12/10 08:39:40;;;;;;;;;33.00;21.00;;;;;4.84;65.46;100848.91;5098248;27;46145;-65
2022/12/10 08:42:05;;;;;;;;;18.75;11.75;;;;;4.84;66.22;100820.75;5098330;27;45416;-63
2022/12/10 08:44:31;;;;;;;;;32.75;23.75;;;;;4.84;65.93;100812.00;5097708;27;45243;-61
2022/12/10 08:46:56;;;;;;;;;30.00;22.75;;;;;4.90;65.17;100832.69;5098612;27;45439;-61
2022/12/10 08:49:22;;;;;;;;;28.50;22.75;;;;;4.91;65.59;100824.66;5097974;27;46014;-61
2022/12/10 08:51:47;;;;;;;;;33.75;22.25;;;;;4.93;65.44;100828.03;5098176;27;45267;-57
2022/12/10 08:54:12;;;;;;;;;36.25;25.25;;;;;4.91;65.21;100819.38;5097188;27;45203;-60
2022/12/10 08:56:39;;;;;;;;;34.25;24.00;;;;;4.97;65.67;100821.59;5078936;27;45421;-62
2022/12/10 08:59:05;;;;;;;;;37.00;22.00;;;;;5.01;65.87;100827.47;5097422;27;45943;-63
2022/12/10 09:01:30;;;;;;;;;34.50;23.50;;;;;5.05;65.30;100828.94;5097294;27;45382;-61
2022/12/10 09:03:55;;;;;;;;;35.50;24.75;;;;;5.10;65.47;100834.75;5097968;27;45635;-63
2022/12/10 09:06:23;;;;;;;;;28.25;27.75;;;;;5.13;64.94;100836.31;5098068;27;45431;-60
2022/12/10 09:08:49;;;;;;;;;25.50;15.75;;;;;5.17;64.83;100833.34;5097294;27;46114;-62
2022/12/10 09:11:21;;;;;;;;;33.75;27.00;;;;;5.21;65.22;100834.81;5097447;27;45279;-53
2022/12/10 09:13:46;;;;;;;;;29.50;23.25;;;;;5.27;65.12;100838.81;5097621;27;45216;-55
2022/12/10 09:16:12;;;;;;;;;40.75;29.00;;;;;5.30;64.90;100840.38;5096504;27;45429;-53
2022/12/10 09:18:38;;;;;;;;;41.25;27.00;;;;;5.35;64.57;100843.53;5097443;27;46015;-52
2022/12/10 09:21:12;;;;;;;;;35.50;24.50;;;;;5.29;64.81;100834.25;5097297;27;45292;-52
2022/12/10 09:23:38;;;;;;;;;33.25;22.75;;;;;5.40;64.60;100846.69;5097290;27;45449;-55
2022/12/10 09:26:09;;;;;;;;;49.75;32.50;;;;;5.40;64.75;100844.06;5097484;27;45544;-55
2022/12/10 09:28:35;;;;;;;;;35.50;23.25;;;;;5.47;65.06;100848.75;5097141;27;45333;-53
2022/12/10 09:31:03;;;;;;;;;34.75;26.00;;;;;5.53;65.00;100851.94;5096568;27;45421;-54
2022/12/10 09:33:30;;;;;;;;;42.50;28.25;;;;;5.44;64.74;100833.16;5097454;27;45397;-56
2022/12/10 09:35:55;;;;;;;;;37.75;33.50;;;;;5.56;64.59;100847.25;5097223;27;45378;-52
2022/12/10 09:38:21;;;;;;;;;32.50;26.50;;;;;5.53;64.81;100842.22;5097069;27;46198;-50
2022/12/10 09:40:55;;;;;;;;;41.75;24.50;;;;;5.65;64.05;100851.03;5096977;27;45320;-54
2022/12/10 09:43:36;;;;;;;;;36.00;25.00;;;;;5.56;63.94;100841.97;5097203;27;45382;-48
2022/12/10 09:46:21;;;;;;;;;44.00;33.25;;;;;5.68;64.12;100858.72;5097173;27;45346;-53
2022/12/10 09:48:58;;;;;;;;;28.25;23.75;;;;;5.69;64.31;100860.41;5096642;27;46382;-51
2022/12/10 09:51:28;;;;;;;;;31.50;24.00;;;;;5.68;64.05;100861.34;5097018;27;45468;-52
2022/12/10 09:54:00;;;;;;;;;33.25;26.75;;;;;5.56;64.20;100846.41;5096731;27;45360;-49
2022/12/10 09:56:30;;;;;;;;;31.50;29.00;;;;;5.69;63.84;100865.69;5097256;27;45391;-51
2022/12/10 09:58:57;;;;;;;;;31.00;23.25;;;;;6.16;63.33;100864.00;5100451;27;46329;-51
2022/12/10 10:01:27;;;;;;;;;32.50;27.50;;;;;6.10;62.70;100860.00;5099101;27;45427;-52
2022/12/10 10:03:53;;;;;;;;;38.00;31.00;;;;;6.13;63.04;100872.97;5100490;27;45205;-53
2022/12/10 10:06:18;;;;;;;;;33.25;24.25;;;;;6.12;62.48;100870.47;5100624;27;45385;-52
2022/12/10 10:08:47;;;;;;;;;25.50;25.00;;;;;6.13;62.83;100872.97;5100208;27;45480;-52
2022/12/10 10:11:20;;;;;;;;;38.50;25.75;;;;;6.17;62.82;100871.78;5100237;27;45390;-52
2022/12/10 10:14:03;;;;;;;;;31.00;27.50;;;;;6.26;62.63;100872.91;5100244;27;45269;-54
2022/12/10 10:16:37;;;;;;;;;31.75;18.25;;;;;6.28;61.79;100871.00;5100484;27;45290;-50
2022/12/10 10:19:11;;;;;;;;;26.00;23.50;;;;;6.48;61.67;100867.66;5099758;27;46319;-50
2022/12/10 10:21:39;;;;;;;;;36.25;27.00;;;;;6.37;61.18;100861.53;5099583;27;45321;-52
2022/12/10 10:24:10;;;;;;;;;31.25;25.50;;;;;6.38;61.48;100864.03;5100078;27;45409;-53
2022/12/10 10:26:35;;;;;;;;;25.50;23.75;;;;;6.35;61.35;100860.78;5100129;27;45471;-50
2022/12/10 10:29:05;;;;;;;;;26.50;23.75;;;;;6.33;61.65;100852.16;5100010;27;46286;-50
2022/12/10 10:31:34;;;;;;;;;31.25;25.25;;;;;6.36;61.61;100858.03;5099971;27;45275;-52
2022/12/10 10:34:05;;;;;;;;;33.25;26.00;;;;;6.41;61.07;100861.19;5099936;27;45603;-49
2022/12/10 10:36:34;;;;;;;;;31.75;26.25;;;;;6.44;60.54;100849.50;5098694;27;45541;-48
2022/12/10 10:39:26;;;;;;;;;30.25;26.00;;;;;6.44;61.21;100855.63;5099597;27;46122;-51
2022/12/10 10:41:54;;;;;;;;;46.25;32.75;;;;;6.45;60.45;100852.06;5099865;27;45448;-53
2022/12/10 10:44:22;;;;;;;;;36.75;25.25;;;;;6.43;60.85;100843.38;5099986;27;45390;-51
2022/12/10 10:46:51;;;;;;;;;30.75;27.50;;;;;6.55;60.40;100851.34;5099861;27;45571;-53
2022/12/10 10:49:29;;;;;;;;;31.25;25.75;;;;;6.58;60.58;100859.03;5099445;27;46229;-50
2022/12/10 10:52:12;;;;;;;;;32.75;28.00;;;;;6.60;60.69;100857.94;5099863;27;45448;-53
2022/12/10 10:54:42;;;;;;;;;38.50;27.25;;;;;6.62;60.51;100858.69;5099811;27;45339;-53
2022/12/10 10:57:24;;;;;;;;;32.50;26.50;;;;;6.58;60.16;100862.53;5099802;27;45425;-52
2022/12/10 10:59:52;;;;;;;;;37.25;28.50;;;;;6.58;60.03;100859.88;5099548;27;46156;-55
2022/12/10 11:02:30;;;;;;;;;42.00;27.50;;;;;6.59;60.34;100866.00;5099588;27;45349;-52
2022/12/10 11:05:00;;;;;;;;;33.25;28.25;;;;;7.55;58.83;100863.69;5099723;27;45389;-50
2022/12/10 11:07:38;;;;;;;;;26.75;24.75;;;;;8.11;57.17;100863.47;5099107;27;45354;-49
2022/12/10 11:10:17;;;;;;;;;30.50;27.50;;;;;7.71;57.08;100869.41;5099070;27;47601;-47
2022/12/10 11:12:45;;;;;;;;;45.50;31.00;;;;;7.39;58.51;100864.06;5099451;27;45448;-51
2022/12/10 11:15:22;;;;;;;;;41.25;27.75;;;;;7.23;58.34;100875.03;5099594;27;45357;-49
2022/12/10 11:17:51;;;;;;;;;37.75;29.00;;;;;7.15;58.66;100877.44;5099121;27;45337;-53
2022/12/10 11:20:20;;;;;;;;;34.50;25.00;;;;;7.11;59.12;100872.50;5099289;27;45374;-48
2022/12/10 11:22:50;;;;;;;;;33.25;28.75;;;;;7.06;58.88;100872.03;5099105;27;45393;-51
2022/12/10 11:25:16;;;;;;;;;23.50;22.00;;;;;6.98;58.96;100870.00;5099104;27;45402;-53
2022/12/10 11:28:00;;;;;;;;;31.50;28.00;;;;;6.97;58.90;100869.16;5099414;27;45348;-52
2022/12/10 11:30:26;;;;;;;;;47.50;33.25;;;;;7.06;59.11;100864.09;5099214;27;46193;-51